Time;durP1;ratioP1;P1;durP2;ratioP2;P2;SDS_P1;SDS_P2;PMS_P1;PMS_P2;Temp;Humidity;BMP_temperature;BMP_pressure;BME280_temperature;BME280_humidity;BME280_pressure;Samples;Min_cycle;Max_cycle;Signal;HPM_P1;HPM_P2
2023/11/02 00:01:27;;;;;;;;;;;;;;;13.86;64.56;98633.84;4875044;29;19980;-65
2023/11/02 00:03:52;;;;;;;;;;;;;;;13.89;64.27;98627.59;4874335;29;19931;-66
2023/11/02 00:06:21;;;;;;;;;;;;;;;13.91;64.53;98625.78;4859969;29;19924;-65
2023/11/02 00:09:02;;;;;;;;;;;;;;;13.85;64.24;98627.72;4877361;29;20060;-66
2023/11/02 00:11:47;;;;;;;;;;;;;;;13.84;64.38;98625.19;4860876;29;19928;-65
2023/11/02 00:14:13;;;;;;;;;;;;;;;13.84;64.62;98615.56;4860111;29;19932;-65
2023/11/02 00:16:39;;;;;;;;;;;;;;;13.83;64.49;98613.88;4876767;29;19931;-66
2023/11/02 00:19:12;;;;;;;;;;;;;;;13.86;64.66;98613.75;4859803;29;20026;-65
2023/11/02 00:21:37;;;;;;;;;;;;;;;13.91;64.73;98618.78;4871814;29;19972;-66
2023/11/02 00:24:07;;;;;;;;;;;;;;;13.94;64.77;98610.81;4844619;29;19928;-65
2023/11/02 00:26:33;;;;;;;;;;;;;;;13.95;65.03;98602.06;4854536;29;19943;-65
2023/11/02 00:28:59;;;;;;;;;;;;;;;14.00;64.65;98600.09;4861136;29;19924;-64
2023/11/02 00:31:27;;;;;;;;;;;;;;;14.06;64.94;98591.13;4845028;29;19928;-66
2023/11/02 00:33:55;;;;;;;;;;;;;;;14.08;64.53;98578.84;4861315;29;20115;-65
2023/11/02 00:36:22;;;;;;;;;;;;;;;14.11;64.77;98581.34;4875308;29;19959;-65
2023/11/02 00:38:48;;;;;;;;;;;;;;;14.12;64.48;98590.06;4857960;29;20484;-66
2023/11/02 00:41:15;;;;;;;;;;;;;;;14.10;64.37;98577.03;4860268;29;19924;-64
2023/11/02 00:43:43;;;;;;;;;;;;;;;14.05;64.47;98573.75;4860040;29;20410;-63
2023/11/02 00:46:10;;;;;;;;;;;;;;;14.08;64.53;98576.22;4859861;29;19928;-65
2023/11/02 00:48:36;;;;;;;;;;;;;;;14.11;64.53;98576.09;4860644;29;19924;-65
2023/11/02 00:51:02;;;;;;;;;;;;;;;14.15;64.72;98571.59;4860036;29;19924;-65
2023/11/02 00:53:28;;;;;;;;;;;;;;;14.16;64.56;98574.16;4873322;29;20019;-66
2023/11/02 00:55:54;;;;;;;;;;;;;;;14.16;64.47;98568.91;4868846;29;19979;-65
2023/11/02 00:58:26;;;;;;;;;;;;;;;14.14;64.48;98562.03;4878660;29;19923;-64
2023/11/02 01:00:52;;;;;;;;;;;;;;;14.12;64.42;98567.34;4857888;29;19931;-64
2023/11/02 01:03:22;;;;;;;;;;;;;;;14.14;64.66;98575.13;4876245;29;19966;-64
2023/11/02 01:05:51;;;;;;;;;;;;;;;14.13;64.60;98566.44;4876073;29;19927;-64
2023/11/02 01:08:23;;;;;;;;;;;;;;;14.08;64.25;98568.38;4861198;29;19923;-64
2023/11/02 01:10:49;;;;;;;;;;;;;;;14.03;64.59;98578.19;4866082;29;19928;-68
2023/11/02 01:13:17;;;;;;;;;;;;;;;14.07;64.67;98573.69;4864370;29;19935;-63
2023/11/02 01:15:43;;;;;;;;;;;;;;;14.07;64.83;98569.31;4880745;29;19989;-64
2023/11/02 01:18:13;;;;;;;;;;;;;;;14.01;64.63;98567.81;4870319;29;19935;-63
2023/11/02 01:20:50;;;;;;;;;;;;;;;13.98;64.76;98567.94;4861043;29;19923;-64
2023/11/02 01:23:16;;;;;;;;;;;;;;;13.95;64.58;98560.22;4848800;29;19931;-64
2023/11/02 01:25:44;;;;;;;;;;;;;;;13.96;64.90;98566.31;4855507;29;19928;-65
2023/11/02 01:28:14;;;;;;;;;;;;;;;13.98;65.06;98556.63;4863302;29;19935;-65
2023/11/02 01:30:40;;;;;;;;;;;;;;;14.00;64.99;98557.44;4864189;29;19924;-65
2023/11/02 01:33:25;;;;;;;;;;;;;;;14.01;64.94;98553.91;4876151;29;19928;-64
2023/11/02 01:35:52;;;;;;;;;;;;;;;13.95;64.77;98554.97;4878408;29;19924;-64
2023/11/02 01:38:17;;;;;;;;;;;;;;;13.84;64.82;98560.66;4881420;29;19930;-65
2023/11/02 01:41:00;;;;;;;;;;;;;;;13.81;65.21;98552.13;4864764;29;19978;-64
2023/11/02 01:43:37;;;;;;;;;;;;;;;13.84;65.36;98550.22;4881945;29;20399;-64
2023/11/02 01:46:16;;;;;;;;;;;;;;;13.88;65.35;98552.69;4876572;29;19928;-64
2023/11/02 01:48:57;;;;;;;;;;;;;;;13.85;65.60;98549.28;4839307;29;19924;-64
2023/11/02 01:51:31;;;;;;;;;;;;;;;13.85;65.69;98554.53;4863474;29;20374;-65
2023/11/02 01:54:12;;;;;;;;;;;;;;;13.83;65.96;98548.50;4879333;29;19927;-63
2023/11/02 01:56:43;;;;;;;;;;;;;;;13.81;65.91;98545.09;4853444;29;19936;-66
2023/11/02 01:59:08;;;;;;;;;;;;;;;13.79;65.82;98544.31;4840925;29;20059;-65
2023/11/02 02:01:37;;;;;;;;;;;;;;;13.78;65.89;98544.41;4851037;29;20455;-65
2023/11/02 02:04:09;;;;;;;;;;;;;;;13.76;65.87;98543.59;4850903;29;19929;-66
2023/11/02 02:06:38;;;;;;;;;;;;;;;13.75;65.98;98542.78;4869821;29;20398;-65
2023/11/02 02:09:23;;;;;;;;;;;;;;;13.74;66.08;98543.69;4854212;29;19924;-64
2023/11/02 02:11:59;;;;;;;;;;;;;;;13.74;66.12;98541.06;4867305;29;20010;-66
2023/11/02 02:14:37;;;;;;;;;;;;;;;13.75;66.19;98537.53;4867363;29;20035;-65
2023/11/02 02:17:19;;;;;;;;;;;;;;;13.73;66.32;98541.97;4868647;29;19994;-66
2023/11/02 02:19:48;;;;;;;;;;;;;;;13.67;66.30;98532.63;4855784;29;19928;-65
2023/11/02 02:22:17;;;;;;;;;;;;;;;13.61;66.47;98535.50;4846792;29;19931;-63
2023/11/02 02:25:02;;;;;;;;;;;;;;;13.57;66.79;98538.31;4859274;29;19924;-66
2023/11/02 02:27:54;;;;;;;;;;;;;;;13.55;66.62;98528.78;4852805;29;19931;-66
2023/11/02 02:30:39;;;;;;;;;;;;;;;13.57;66.84;98538.31;4876863;29;19931;-67
2023/11/02 02:33:09;;;;;;;;;;;;;;;13.55;66.94;98533.13;4849434;29;19964;-65
2023/11/02 02:36:01;;;;;;;;;;;;;;;13.56;67.11;98532.22;4848948;29;19925;-66
2023/11/02 02:38:32;;;;;;;;;;;;;;;13.55;66.89;98526.16;4848070;29;19932;-67
2023/11/02 02:41:08;;;;;;;;;;;;;;;13.50;66.41;98528.09;4854343;29;19952;-66
2023/11/02 02:43:34;;;;;;;;;;;;;;;13.45;67.11;98524.81;4870882;29;19928;-65
2023/11/02 02:46:06;;;;;;;;;;;;;;;13.45;67.24;98518.75;4855836;29;19931;-67
2023/11/02 02:48:33;;;;;;;;;;;;;;;13.45;67.34;98516.16;4856368;29;19924;-68
2023/11/02 02:51:02;;;;;;;;;;;;;;;13.45;67.36;98521.38;4867689;29;19924;-67
2023/11/02 02:53:30;;;;;;;;;;;;;;;13.44;67.27;98520.50;4869887;29;19954;-68
2023/11/02 02:55:58;;;;;;;;;;;;;;;13.35;67.37;98523.47;4842403;29;19928;-66
2023/11/02 02:58:26;;;;;;;;;;;;;;;13.35;67.76;98523.47;4879285;29;20368;-66
2023/11/02 03:00:55;;;;;;;;;;;;;;;13.39;67.82;98514.59;4864037;29;19993;-65
2023/11/02 03:03:23;;;;;;;;;;;;;;;13.43;67.72;98507.53;4863436;29;20418;-65
2023/11/02 03:05:50;;;;;;;;;;;;;;;13.43;67.91;98512.75;4872866;29;20071;-64
2023/11/02 03:08:16;;;;;;;;;;;;;;;13.43;68.08;98510.97;4862213;29;19924;-64
2023/11/02 03:10:45;;;;;;;;;;;;;;;13.47;68.07;98506.44;4859058;29;19931;-64
2023/11/02 03:13:12;;;;;;;;;;;;;;;13.46;67.94;98497.78;4874587;29;20215;-63
2023/11/02 03:15:41;;;;;;;;;;;;;;;13.23;67.60;98503.94;4874503;29;19924;-64
2023/11/02 03:18:14;;;;;;;;;;;;;;;13.07;67.10;98495.84;4873293;29;20411;-64
2023/11/02 03:20:41;;;;;;;;;;;;;;;12.98;68.10;98499.69;4872026;29;19924;-63
2023/11/02 03:23:19;;;;;;;;;;;;;;;13.04;68.40;98494.19;4859373;29;19924;-66
2023/11/02 03:26:05;;;;;;;;;;;;;;;13.07;68.63;98495.84;4870866;29;19935;-66
2023/11/02 03:28:50;;;;;;;;;;;;;;;13.12;68.74;98499.13;4859240;29;19924;-65
2023/11/02 03:31:30;;;;;;;;;;;;;;;13.13;69.08;98492.97;4862510;29;20663;-65
2023/11/02 03:34:02;;;;;;;;;;;;;;;13.17;68.99;98488.50;4861085;29;19943;-64
2023/11/02 03:36:39;;;;;;;;;;;;;;;13.17;69.06;98485.88;4861269;29;20303;-66
2023/11/02 03:39:23;;;;;;;;;;;;;;;13.16;68.96;98487.63;4858554;29;19931;-66
2023/11/02 03:42:01;;;;;;;;;;;;;;;13.08;68.93;98493.16;4855004;29;19931;-64
2023/11/02 03:44:26;;;;;;;;;;;;;;;13.13;69.48;98495.59;4862182;29;19924;-65
2023/11/02 03:47:03;;;;;;;;;;;;;;;13.16;69.22;98495.47;4858854;29;19939;-65
2023/11/02 03:49:31;;;;;;;;;;;;;;;13.16;69.23;98487.63;4860411;29;19931;-65
2023/11/02 03:52:06;;;;;;;;;;;;;;;13.21;69.31;98490.06;4860379;29;19939;-64
2023/11/02 03:54:49;;;;;;;;;;;;;;;13.25;69.22;98487.28;4875435;29;19928;-66
2023/11/02 03:57:30;;;;;;;;;;;;;;;13.30;69.37;98478.41;4848268;29;19976;-65
2023/11/02 04:00:06;;;;;;;;;;;;;;;13.27;69.23;98484.59;4861374;29;19931;-64
2023/11/02 04:02:57;;;;;;;;;;;;;;;13.23;69.39;98478.66;4849066;29;19935;-66
2023/11/02 04:05:24;;;;;;;;;;;;;;;13.23;69.56;98477.81;4841930;29;20592;-64
2023/11/02 04:07:53;;;;;;;;;;;;;;;13.25;69.43;98473.34;4865146;29;19930;-66
2023/11/02 04:10:25;;;;;;;;;;;;;;;13.26;69.34;98478.53;4846219;29;19924;-66
2023/11/02 04:12:53;;;;;;;;;;;;;;;13.28;69.52;98475.84;4862406;29;19928;-64
2023/11/02 04:15:19;;;;;;;;;;;;;;;13.30;69.40;98484.47;4825568;29;21192;-66
2023/11/02 04:17:45;;;;;;;;;;;;;;;13.24;69.31;98480.34;4836545;29;19928;-66
2023/11/02 04:20:11;;;;;;;;;;;;;;;13.18;69.48;98485.81;4865543;29;19931;-65
2023/11/02 04:22:40;;;;;;;;;;;;;;;13.14;69.33;98483.41;4833550;29;19928;-65
2023/11/02 04:25:06;;;;;;;;;;;;;;;13.07;69.55;98482.78;4848695;29;20326;-66
2023/11/02 04:27:47;;;;;;;;;;;;;;;13.04;69.73;98485.53;4848498;29;20033;-64
2023/11/02 04:30:15;;;;;;;;;;;;;;;13.03;69.81;98482.03;4846872;29;19999;-66
2023/11/02 04:32:41;;;;;;;;;;;;;;;12.99;69.72;98477.88;4862108;29;19932;-65
2023/11/02 04:35:11;;;;;;;;;;;;;;;12.94;69.71;98472.81;4833798;29;19931;-65
2023/11/02 04:37:40;;;;;;;;;;;;;;;12.83;69.39;98480.25;4848634;29;19935;-66
2023/11/02 04:40:07;;;;;;;;;;;;;;;12.76;69.80;98479.63;4848251;29;20305;-65
2023/11/02 04:42:34;;;;;;;;;;;;;;;12.72;69.96;98466.75;4863685;29;19963;-65
2023/11/02 04:45:01;;;;;;;;;;;;;;;12.74;69.88;98465.78;4819022;29;19935;-63
2023/11/02 04:47:33;;;;;;;;;;;;;;;12.74;69.96;98470.16;4848836;29;20351;-64
2023/11/02 04:50:00;;;;;;;;;;;;;;;12.73;69.71;98469.31;4847091;29;19924;-66
2023/11/02 04:52:33;;;;;;;;;;;;;;;12.69;69.94;98461.66;4861980;29;19951;-65
2023/11/02 04:55:02;;;;;;;;;;;;;;;12.64;69.71;98461.81;4849063;29;19971;-66
2023/11/02 04:57:29;;;;;;;;;;;;;;;12.59;69.99;98466.38;4861280;29;19925;-65
2023/11/02 05:00:03;;;;;;;;;;;;;;;12.57;69.81;98468.22;4877851;29;19924;-65
2023/11/02 05:02:30;;;;;;;;;;;;;;;12.56;69.76;98462.13;4861852;29;19966;-67
2023/11/02 05:04:57;;;;;;;;;;;;;;;12.56;70.13;98461.28;4846271;29;19987;-65
2023/11/02 05:07:22;;;;;;;;;;;;;;;12.52;69.89;98457.09;4856763;29;20413;-68
2023/11/02 05:09:51;;;;;;;;;;;;;;;12.49;70.17;98460.66;4861249;29;20002;-66
2023/11/02 05:12:17;;;;;;;;;;;;;;;12.46;70.08;98463.41;4875458;29;20035;-66
2023/11/02 05:14:43;;;;;;;;;;;;;;;12.45;70.10;98467.75;4860754;29;20004;-66
2023/11/02 05:17:12;;;;;;;;;;;;;;;12.40;70.04;98482.72;4867155;29;19927;-67
2023/11/02 05:19:38;;;;;;;;;;;;;;;12.35;70.22;98476.84;4849175;29;19923;-64
2023/11/02 05:22:04;;;;;;;;;;;;;;;12.33;69.96;98484.72;4878350;29;20360;-65
2023/11/02 05:24:34;;;;;;;;;;;;;;;12.32;70.02;98475.19;4862411;29;19975;-65
2023/11/02 05:27:00;;;;;;;;;;;;;;;12.34;70.29;98477.75;4878147;29;19963;-67
2023/11/02 05:29:26;;;;;;;;;;;;;;;12.26;69.55;98466.75;4857197;29;19923;-64
2023/11/02 05:31:52;;;;;;;;;;;;;;;12.28;70.10;98465.75;4861997;29;19931;-65
2023/11/02 05:34:19;;;;;;;;;;;;;;;12.27;69.93;98471.88;4878388;29;19927;-66
2023/11/02 05:36:51;;;;;;;;;;;;;;;12.19;69.47;98469.56;4860610;29;19923;-66
2023/11/02 05:39:17;;;;;;;;;;;;;;;12.17;70.26;98473.16;4863150;29;20623;-66
2023/11/02 05:41:42;;;;;;;;;;;;;;;12.14;70.16;98478.47;4864533;29;19947;-67
2023/11/02 05:44:08;;;;;;;;;;;;;;;12.04;69.86;98468.38;4880190;29;20010;-66
2023/11/02 05:46:37;;;;;;;;;;;;;;;12.03;70.35;98464.06;4865854;29;19930;-67
2023/11/02 05:49:06;;;;;;;;;;;;;;;11.97;69.87;98471.22;4882411;29;20414;-67
2023/11/02 05:51:41;;;;;;;;;;;;;;;11.99;70.28;98472.06;4866253;29;19924;-68
2023/11/02 05:54:06;;;;;;;;;;;;;;;11.96;70.12;98483.41;4865548;29;19927;-66
2023/11/02 05:56:35;;;;;;;;;;;;;;;11.92;70.38;98471.41;4863680;29;20283;-66
2023/11/02 05:59:01;;;;;;;;;;;;;;;11.94;70.20;98464.38;4827327;29;19928;-67
2023/11/02 06:01:27;;;;;;;;;;;;;;;11.95;70.37;98460.84;4843876;29;20276;-67
2023/11/02 06:04:02;;;;;;;;;;;;;;;11.98;70.18;98460.75;4842033;29;21456;-67
2023/11/02 06:06:28;;;;;;;;;;;;;;;11.98;70.42;98455.53;4857859;29;19924;-67
2023/11/02 06:08:53;;;;;;;;;;;;;;;11.96;70.35;98465.16;4858019;29;20316;-66
2023/11/02 06:11:20;;;;;;;;;;;;;;;11.97;70.17;98460.78;4844639;29;19964;-66
2023/11/02 06:13:48;;;;;;;;;;;;;;;11.98;70.24;98452.06;4826053;29;20031;-66
2023/11/02 06:16:15;;;;;;;;;;;;;;;11.95;70.20;98450.44;4842578;29;20405;-68
2023/11/02 06:18:42;;;;;;;;;;;;;;;11.96;70.10;98446.91;4842598;29;19935;-67
2023/11/02 06:21:09;;;;;;;;;;;;;;;11.97;70.16;98458.19;4828121;29;19924;-65
2023/11/02 06:23:35;;;;;;;;;;;;;;;12.00;70.15;98450.28;4843607;29;19925;-67
2023/11/02 06:26:01;;;;;;;;;;;;;;;11.96;69.94;98436.50;4843011;29;19945;-66
2023/11/02 06:28:26;;;;;;;;;;;;;;;11.97;70.44;98432.13;4840897;29;19934;-66
2023/11/02 06:30:52;;;;;;;;;;;;;;;11.92;70.30;98445.31;4842865;29;19970;-66
2023/11/02 06:33:25;;;;;;;;;;;;;;;11.92;70.54;98440.13;4841626;29;19984;-66
2023/11/02 06:35:50;;;;;;;;;;;;;;;11.94;70.28;98433.09;4842898;29;19924;-65
2023/11/02 06:38:21;;;;;;;;;;;;;;;11.93;70.46;98431.38;4842255;29;19988;-66
2023/11/02 06:40:47;;;;;;;;;;;;;;;11.93;70.49;98417.50;4842871;29;19925;-66
2023/11/02 06:43:17;;;;;;;;;;;;;;;11.89;70.38;98419.38;4810080;29;19924;-67
2023/11/02 06:45:43;;;;;;;;;;;;;;;11.89;70.42;98419.38;4842157;29;19949;-67
2023/11/02 06:48:09;;;;;;;;;;;;;;;11.90;70.23;98424.53;4841839;29;19924;-64
2023/11/02 06:50:34;;;;;;;;;;;;;;;11.84;70.18;98416.94;4841846;29;20299;-71
2023/11/02 06:53:01;;;;;;;;;;;;;;;11.81;70.14;98409.22;4836236;29;19932;-69
2023/11/02 06:55:27;;;;;;;;;;;;;;;11.81;70.28;98405.75;4767522;29;2419638;-70
2023/11/02 06:57:55;;;;;;;;;;;;;;;11.77;69.90;98409.41;4860456;29;19935;-70
2023/11/02 07:00:24;;;;;;;;;;;;;;;11.79;70.52;98404.97;4847022;29;20034;-69
2023/11/02 07:02:50;;;;;;;;;;;;;;;11.77;70.51;98406.78;4859072;29;19924;-69
2023/11/02 07:05:16;;;;;;;;;;;;;;;11.80;70.38;98412.72;4879128;29;19923;-70
2023/11/02 07:07:44;;;;;;;;;;;;;;;11.71;70.61;98408.72;4863526;29;19928;-70
2023/11/02 07:10:10;;;;;;;;;;;;;;;11.70;70.72;98404.41;4868991;29;19931;-68
2023/11/02 07:12:36;;;;;;;;;;;;;;;11.66;70.33;98408.00;4848741;29;19954;-71
2023/11/02 07:15:02;;;;;;;;;;;;;;;11.68;70.39;98410.59;4864542;29;19958;-70
2023/11/02 07:17:29;;;;;;;;;;;;;;;11.68;70.09;98402.75;4847554;29;19979;-71
2023/11/02 07:19:56;;;;;;;;;;;;;;;11.71;70.66;98405.22;4849765;29;19924;-69
2023/11/02 07:25:13;;;;;;;;;;;;;;;11.76;70.29;98405.94;4871222;29;19927;-69
2023/11/02 07:27:41;;;;;;;;;;;;;;;11.74;70.55;98405.13;4863888;29;19987;-70
2023/11/02 07:30:10;;;;;;;;;;;;;;;11.74;70.52;98402.53;4881941;29;19991;-73
2023/11/02 07:32:36;;;;;;;;;;;;;;;11.79;70.71;98408.44;4864381;29;20495;-70
2023/11/02 07:35:02;;;;;;;;;;;;;;;11.75;70.44;98407.69;4869926;29;19971;-74
2023/11/02 07:37:28;;;;;;;;;;;;;;;11.72;70.35;98397.38;4863783;29;19923;-71
2023/11/02 07:39:58;;;;;;;;;;;;;;;11.68;70.60;98403.59;4882283;29;19935;-69
2023/11/02 07:42:27;;;;;;;;;;;;;;;11.64;70.56;98401.16;4865822;29;19924;-69
2023/11/02 07:44:55;;;;;;;;;;;;;;;11.61;70.53;98404.72;4849116;29;19979;-69
2023/11/02 07:47:21;;;;;;;;;;;;;;;11.55;70.50;98405.78;4881574;29;20604;-67
2023/11/02 07:49:47;;;;;;;;;;;;;;;11.43;70.51;98411.44;4885355;29;19923;-68
2023/11/02 07:52:13;;;;;;;;;;;;;;;11.36;70.58;98413.41;4867469;29;19924;-70
2023/11/02 07:54:39;;;;;;;;;;;;;;;11.40;70.77;98414.97;4849829;29;19978;-69
2023/11/02 07:57:07;;;;;;;;;;;;;;;11.43;70.67;98416.66;4865500;29;20025;-69
2023/11/02 07:59:34;;;;;;;;;;;;;;;11.38;70.68;98414.19;4883981;29;19931;-69
2023/11/02 08:02:04;;;;;;;;;;;;;;;11.39;70.76;98415.88;4872114;29;19924;-69
2023/11/02 08:04:29;;;;;;;;;;;;;;;11.35;70.73;98416.91;4854738;29;19923;-68
2023/11/02 08:06:57;;;;;;;;;;;;;;;11.27;70.53;98416.31;4865039;29;19932;-70
2023/11/02 08:09:23;;;;;;;;;;;;;;;11.25;70.83;98412.91;4863874;29;19930;-70
2023/11/02 08:11:52;;;;;;;;;;;;;;;11.23;70.54;98415.56;4864643;29;19923;-67
2023/11/02 08:14:28;;;;;;;;;;;;;;;11.12;70.72;98418.53;4869196;29;19928;-67
2023/11/02 08:17:04;;;;;;;;;;;;;;;11.00;70.17;98425.00;4855314;29;20078;-67
2023/11/02 08:19:30;;;;;;;;;;;;;;;10.97;70.78;98424.22;4864888;29;19966;-67
2023/11/02 08:21:59;;;;;;;;;;;;;;;10.98;70.97;98421.59;4868013;29;19928;-69
2023/11/02 08:24:27;;;;;;;;;;;;;;;10.98;70.67;98410.31;4882620;29;19924;-67
2023/11/02 08:26:55;;;;;;;;;;;;;;;10.96;70.75;98420.78;4865730;29;19950;-67
2023/11/02 08:29:25;;;;;;;;;;;;;;;10.93;70.84;98417.41;4865766;29;20056;-66
2023/11/02 08:31:51;;;;;;;;;;;;;;;10.94;70.83;98416.50;4884743;29;19959;-68
2023/11/02 08:34:17;;;;;;;;;;;;;;;10.97;70.94;98417.28;4857571;29;19927;-69
2023/11/02 08:36:42;;;;;;;;;;;;;;;11.01;70.91;98415.41;4883718;29;19963;-67
2023/11/02 08:39:11;;;;;;;;;;;;;;;11.04;71.03;98406.66;4869252;29;19923;-64
2023/11/02 08:41:37;;;;;;;;;;;;;;;11.00;70.77;98418.91;4870746;29;19924;-68
2023/11/02 08:44:07;;;;;;;;;;;;;;;11.04;70.79;98414.47;4871366;29;19923;-68
2023/11/02 08:46:36;;;;;;;;;;;;;;;11.07;71.33;98417.84;4895151;29;19930;-70
2023/11/02 08:49:03;;;;;;;;;;;;;;;11.08;70.83;98406.53;4887177;29;20402;-73
2023/11/02 08:51:31;;;;;;;;;;;;;;;11.10;71.04;98409.06;4889201;29;19931;-76
2023/11/02 08:54:03;;;;;;;;;;;;;;;11.13;70.90;98402.00;4875415;29;20615;-72
2023/11/02 08:56:37;;;;;;;;;;;;;;;11.12;70.76;98389.91;4856034;29;19936;-71
2023/11/02 08:59:05;;;;;;;;;;;;;;;11.08;70.64;98395.25;4840394;29;21126;-68
2023/11/02 09:01:35;;;;;;;;;;;;;;;11.09;71.09;98392.59;4821946;29;19956;-67
2023/11/02 09:04:01;;;;;;;;;;;;;;;11.11;71.29;98390.81;4832914;29;19932;-67
2023/11/02 09:06:28;;;;;;;;;;;;;;;11.12;70.80;98397.72;4834296;29;19980;-66
2023/11/02 09:08:59;;;;;;;;;;;;;;;11.09;71.09;98386.53;4849621;29;19976;-67
2023/11/02 09:11:26;;;;;;;;;;;;;;;11.02;71.11;98388.50;4834838;29;19925;-69
2023/11/02 09:14:00;;;;;;;;;;;;;;;10.96;70.81;98391.28;4833326;29;19935;-68
2023/11/02 09:16:26;;;;;;;;;;;;;;;10.89;70.67;98392.41;4836751;29;20051;-71
2023/11/02 09:18:59;;;;;;;;;;;;;;;10.79;70.59;98384.06;4835935;29;19971;-66
2023/11/02 09:21:36;;;;;;;;;;;;;;;10.63;70.90;98394.09;4852383;29;19976;-70
2023/11/02 09:24:03;;;;;;;;;;;;;;;10.54;70.81;98395.22;4834867;29;20396;-65
2023/11/02 09:26:29;;;;;;;;;;;;;;;10.42;70.55;98395.59;4852761;29;19966;-68
2023/11/02 09:28:56;;;;;;;;;;;;;;;10.31;71.15;98398.50;4852652;29;19967;-65
2023/11/02 09:31:22;;;;;;;;;;;;;;;10.21;70.71;98395.31;4849061;29;20423;-66
2023/11/02 09:33:48;;;;;;;;;;;;;;;10.17;71.12;98397.16;4833656;29;19936;-68
2023/11/02 09:36:14;;;;;;;;;;;;;;;10.14;71.02;98406.81;4832517;29;19929;-66
2023/11/02 09:38:41;;;;;;;;;;;;;;;10.13;70.84;98413.75;4848230;29;19924;-67
2023/11/02 09:41:09;;;;;;;;;;;;;;;10.08;70.83;98400.03;4827646;29;19924;-67
2023/11/02 09:43:45;;;;;;;;;;;;;;;10.02;70.96;98413.22;4832182;29;19924;-67
2023/11/02 09:46:12;;;;;;;;;;;;;;;9.89;71.07;98410.94;4831458;29;19924;-67
2023/11/02 09:48:38;;;;;;;;;;;;;;;9.84;71.00;98414.56;4831657;29;19971;-65
2023/11/02 09:51:08;;;;;;;;;;;;;;;9.78;71.50;98420.81;4848200;29;19949;-70
2023/11/02 09:53:43;;;;;;;;;;;;;;;9.80;71.13;98421.63;4849121;29;19943;-68
2023/11/02 09:56:10;;;;;;;;;;;;;;;9.80;70.95;98419.03;4866685;29;19939;-65
2023/11/02 09:58:39;;;;;;;;;;;;;;;9.79;70.98;98417.31;4855915;29;19944;-68
2023/11/02 10:01:08;;;;;;;;;;;;;;;9.75;71.16;98426.91;4870710;29;19931;-70
2023/11/02 10:03:58;;;;;;;;;;;;;;;9.71;70.72;98422.69;4870008;29;19935;-66
2023/11/02 10:06:25;;;;;;;;;;;;;;;9.67;71.08;98433.22;4853933;29;19934;-65
2023/11/02 10:08:51;;;;;;;;;;;;;;;9.64;71.37;98437.59;4866665;29;19923;-67
2023/11/02 10:11:19;;;;;;;;;;;;;;;9.67;71.29;98430.63;4886580;29;19938;-67
2023/11/02 10:13:56;;;;;;;;;;;;;;;9.71;71.24;98429.66;4866381;29;19932;-66
2023/11/02 10:16:23;;;;;;;;;;;;;;;9.68;70.96;98432.31;4864027;29;20042;-65
2023/11/02 10:18:50;;;;;;;;;;;;;;;9.61;71.25;98429.03;4882924;29;19952;-68
2023/11/02 10:21:20;;;;;;;;;;;;;;;9.61;71.31;98424.69;4876867;29;19948;-65
2023/11/02 10:23:50;;;;;;;;;;;;;;;9.59;71.41;98430.81;4866158;29;19932;-66
2023/11/02 10:26:28;;;;;;;;;;;;;;;9.48;71.21;98436.31;4865661;29;19963;-67
2023/11/02 10:28:55;;;;;;;;;;;;;;;9.40;71.00;98436.50;4863802;29;20335;-65
2023/11/02 10:31:36;;;;;;;;;;;;;;;9.33;71.47;98438.41;4884226;29;19963;-68
2023/11/02 10:34:06;;;;;;;;;;;;;;;9.29;70.85;98441.97;4866473;29;19961;-65
2023/11/02 10:36:33;;;;;;;;;;;;;;;9.22;71.26;98437.81;4866343;29;19923;-66
2023/11/02 10:38:59;;;;;;;;;;;;;;;9.19;71.48;98443.94;4851778;29;19959;-66
2023/11/02 10:41:33;;;;;;;;;;;;;;;9.09;70.94;98452.00;4868047;29;19923;-63
2023/11/02 10:44:03;;;;;;;;;;;;;;;9.03;71.60;98448.66;4868246;29;19931;-66
2023/11/02 10:46:32;;;;;;;;;;;;;;;9.04;71.31;98465.09;4886479;29;19931;-66
2023/11/02 10:49:07;;;;;;;;;;;;;;;9.00;71.48;98453.91;4867543;29;19928;-68
2023/11/02 10:52:05;;;;;;;;;;;;;;;8.92;71.61;98453.28;4881470;29;20268;-68
2023/11/02 10:55:03;;;;;;;;;;;;;;;8.84;71.14;98458.59;4885467;29;19927;-67
2023/11/02 10:57:30;;;;;;;;;;;;;;;8.83;71.75;98454.31;4840020;29;19928;-69
2023/11/02 11:00:13;;;;;;;;;;;;;;;8.83;71.45;98450.88;4845683;29;19928;-65
2023/11/02 11:02:42;;;;;;;;;;;;;;;8.81;71.71;98456.13;4848826;29;19928;-74
2023/11/02 11:05:10;;;;;;;;;;;;;;;8.81;71.54;98455.25;4831800;29;19924;-76
2023/11/02 11:08:01;;;;;;;;;;;;;;;;;;;;;
2023/11/02 11:10:41;;;;;;;;;;;;;;;8.73;71.61;98463.22;4861432;29;19924;-68
2023/11/02 11:13:16;;;;;;;;;;;;;;;8.68;71.64;98460.72;4819220;29;19939;-71
2023/11/02 11:15:45;;;;;;;;;;;;;;;8.64;71.65;98466.00;4831068;29;19953;-70
2023/11/02 11:18:21;;;;;;;;;;;;;;;8.63;71.67;98465.16;4845957;29;19928;-68
2023/11/02 11:20:50;;;;;;;;;;;;;;;8.52;71.35;98469.72;4845765;29;19924;-76
2023/11/02 11:26:17;;;;;;;;;;;;;;;8.44;71.98;98477.63;4837208;29;19939;-72
2023/11/02 11:28:43;;;;;;;;;;;;;;;8.44;71.86;98481.09;4832575;29;19924;-72
2023/11/02 11:31:30;;;;;;;;;;;;;;;8.41;72.12;98475.97;4824595;29;19925;-73
2023/11/02 11:33:56;;;;;;;;;;;;;;;8.41;71.79;98490.63;4848964;29;20436;-70
2023/11/02 11:36:22;;;;;;;;;;;;;;;8.44;72.21;98477.63;4816374;29;20475;-69
2023/11/02 11:38:50;;;;;;;;;;;;;;;8.43;72.13;98484.56;4845842;29;19924;-72
2023/11/02 11:41:42;;;;;;;;;;;;;;;8.36;71.89;98492.50;4832184;29;19924;-70
2023/11/02 11:44:19;;;;;;;;;;;;;;;8.32;72.31;98485.66;4831342;29;20221;-71
2023/11/02 11:46:56;;;;;;;;;;;;;;;8.35;72.19;98485.59;4842764;29;19978;-70
2023/11/02 11:49:36;;;;;;;;;;;;;;;8.31;72.29;98505.53;4834009;29;20384;-71
2023/11/02 11:52:18;;;;;;;;;;;;;;;8.26;71.87;98497.88;4830885;29;20035;-70
2023/11/02 11:54:43;;;;;;;;;;;;;;;8.10;71.61;98492.13;4847217;29;19928;-72
2023/11/02 11:57:10;;;;;;;;;;;;;;;8.03;72.00;98505.22;4882864;29;20023;-74
2023/11/02 11:59:51;;;;;;;;;;;;;;;7.97;71.95;98495.84;4886421;29;19923;-73
2023/11/02 12:02:48;;;;;;;;;;;;;;;7.89;72.06;98497.72;4852216;29;19927;-74
2023/11/02 12:05:45;;;;;;;;;;;;;;;7.82;72.40;98503.03;4871170;29;19948;-71
2023/11/02 12:08:12;;;;;;;;;;;;;;;7.81;72.34;98518.59;4884081;29;19924;-73
2023/11/02 12:10:45;;;;;;;;;;;;;;;7.79;72.32;98512.56;4866023;29;20662;-73
2023/11/02 12:13:15;;;;;;;;;;;;;;;7.76;72.60;98518.66;4886419;29;19931;-74
2023/11/02 12:16:01;;;;;;;;;;;;;;;7.75;72.53;98540.28;4869640;29;19982;-75
2023/11/02 12:18:29;;;;;;;;;;;;;;;7.75;72.19;98526.44;4867350;29;19924;-73
2023/11/02 12:20:59;;;;;;;;;;;;;;;7.78;72.27;98522.09;4858640;29;19924;-73
2023/11/02 12:23:34;;;;;;;;;;;;;;;7.78;72.40;98531.59;4884206;29;19924;-74
2023/11/02 12:26:03;;;;;;;;;;;;;;;7.66;72.12;98545.59;4883715;29;19924;-72
2023/11/02 12:28:53;;;;;;;;;;;;;;;7.64;72.24;98545.63;4854157;29;19971;-72
2023/11/02 12:31:26;;;;;;;;;;;;;;;7.71;72.45;98551.56;4870933;29;19929;-73
2023/11/02 12:33:56;;;;;;;;;;;;;;;7.77;72.42;98545.41;4849815;29;19928;-74
2023/11/02 12:36:24;;;;;;;;;;;;;;;7.77;72.07;98551.47;4855574;29;19941;-72
2023/11/02 12:38:52;;;;;;;;;;;;;;;7.80;72.34;98558.31;4867370;29;19930;-74
2023/11/02 12:41:29;;;;;;;;;;;;;;;7.81;72.02;98562.59;4853260;29;19931;-73
2023/11/02 12:44:11;;;;;;;;;;;;;;;7.80;71.85;98561.78;4866087;29;19928;-75
2023/11/02 12:46:43;;;;;;;;;;;;;;;7.79;71.86;98564.38;4870052;29;19983;-74
2023/11/02 12:49:27;;;;;;;;;;;;;;;7.82;72.07;98572.09;4882945;29;19923;-73
2023/11/02 12:51:54;;;;;;;;;;;;;;;7.88;71.87;98574.59;4881582;29;19923;-73
2023/11/02 12:54:30;;;;;;;;;;;;;;;7.85;71.74;98564.28;4885579;29;20536;-75
2023/11/02 12:57:30;;;;;;;;;;;;;;;;;;;;;
2023/11/02 13:00:19;;;;;;;;;;;;;;;7.76;71.38;98586.00;4859569;29;19947;-75
2023/11/02 13:02:50;;;;;;;;;;;;;;;7.77;71.49;98579.94;4889811;29;19924;-76
2023/11/02 13:05:33;;;;;;;;;;;;;;;7.69;71.28;98587.84;4859807;29;19948;-74
2023/11/02 13:08:06;;;;;;;;;;;;;;;7.68;71.42;98582.69;4872498;29;19931;-72
2023/11/02 13:10:42;;;;;;;;;;;;;;;7.61;71.13;98594.03;4854249;29;19928;-71
2023/11/02 13:13:31;;;;;;;;;;;;;;;7.55;71.42;98592.38;4871967;29;19927;-73
2023/11/02 13:16:00;;;;;;;;;;;;;;;7.54;71.08;98596.72;4883826;29;21125;-72